Time;durP1;ratioP1;P1;durP2;ratioP2;P2;SDS_P1;SDS_P2;PMS_P1;PMS_P2;Temp;Humidity;BMP_temperature;BMP_pressure;BME280_temperature;BME280_humidity;BME280_pressure;Samples;Min_cycle;Max_cycle;Signal;HPM_P1;HPM_P2
2022/10/07 00:01:23;;;;;;;0.40;0.40;;;;;;;12.22;88.14;100774.53;5063470;28;20032;-67
2022/10/07 00:03:48;;;;;;;1.75;1.65;;;;;;;12.23;88.43;100778.03;5064969;28;20043;-67
2022/10/07 00:06:19;;;;;;;0.40;0.40;;;;;;;12.24;88.48;100765.00;5064861;28;20539;-68
2022/10/07 00:08:46;;;;;;;0.40;0.40;;;;;;;12.25;88.29;100774.53;5064936;28;20539;-68
2022/10/07 00:11:20;;;;;;;0.40;0.40;;;;;;;12.30;88.76;100779.69;5064844;28;20078;-68
2022/10/07 00:13:47;;;;;;;0.60;0.60;;;;;;;12.38;88.34;100772.66;5064671;28;20032;-67
2022/10/07 00:16:19;;;;;;;0.40;0.40;;;;;;;12.43;88.18;100767.41;5064771;28;20054;-67
2022/10/07 00:18:47;;;;;;;0.73;0.73;;;;;;;12.47;87.95;100770.84;5064937;28;20095;-67
2022/10/07 00:21:15;;;;;;;0.65;0.65;;;;;;;12.46;87.95;100775.19;5064803;28;20037;-67
2022/10/07 00:23:42;;;;;;;0.57;0.57;;;;;;;12.50;88.12;100766.47;5064833;28;20017;-68
2022/10/07 00:26:09;;;;;;;8.55;3.78;;;;;;;12.53;88.36;100773.38;5064940;28;20032;-67
2022/10/07 00:28:35;;;;;;;0.93;0.93;;;;;;;12.47;88.03;100750.00;5064198;28;20025;-67
2022/10/07 00:31:04;;;;;;;0.40;0.40;;;;;;;12.55;88.25;100768.16;5064326;28;20029;-67
2022/10/07 00:33:32;;;;;;;1.52;1.50;;;;;;;12.56;88.06;100759.47;5066493;28;20037;-67
2022/10/07 00:35:57;;;;;;;0.50;0.50;;;;;;;12.59;87.61;100751.59;5068055;28;20144;-66
2022/10/07 00:38:22;;;;;;;0.40;0.40;;;;;;;12.63;87.57;100768.94;5068324;28;20030;-67
2022/10/07 00:40:48;;;;;;;0.98;0.98;;;;;;;12.68;87.58;100758.47;5068205;28;20035;-67
2022/10/07 00:43:25;;;;;;;0.40;0.40;;;;;;;12.71;87.36;100763.66;5066863;28;20028;-67
2022/10/07 00:45:54;;;;;;;0.40;0.40;;;;;;;12.70;87.26;100741.09;5068539;28;20032;-68
2022/10/07 00:48:23;;;;;;;0.30;0.30;;;;;;;12.72;87.46;100739.31;5067892;28;20089;-68
2022/10/07 00:50:52;;;;;;;0.40;0.40;;;;;;;12.64;87.42;100734.19;5067932;28;20029;-69
2022/10/07 00:53:20;;;;;;;0.30;0.30;;;;;;;12.66;87.11;100745.47;5067862;28;20029;-68
2022/10/07 00:55:45;;;;;;;0.50;0.50;;;;;;;12.63;87.39;100735.97;5068281;28;20028;-68
2022/10/07 00:58:11;;;;;;;0.40;0.40;;;;;;;12.60;87.28;100722.94;5067721;28;20025;-67
2022/10/07 01:00:38;;;;;;;0.95;0.95;;;;;;;12.61;87.34;100737.72;5067656;28;20036;-69
2022/10/07 01:03:04;;;;;;;0.40;0.40;;;;;;;12.61;87.47;100723.81;5067815;28;20021;-67
2022/10/07 01:05:30;;;;;;;0.40;0.40;;;;;;;12.56;87.60;100713.44;5067826;28;20045;-67
2022/10/07 01:07:57;;;;;;;0.45;0.45;;;;;;;12.59;87.32;100721.22;5067821;28;20052;-67
2022/10/07 01:10:30;;;;;;;12.93;1.52;;;;;;;12.61;87.49;100721.22;5067994;28;20416;-69
2022/10/07 01:13:26;;;;;;;3.38;1.85;;;;;;;12.60;87.55;100712.53;5067615;28;20025;-66
2022/10/07 01:16:06;;;;;;;1.98;1.88;;;;;;;12.61;87.43;100716.00;5068298;28;20029;-67
2022/10/07 01:18:32;;;;;;;0.30;0.30;;;;;;;12.63;87.64;100715.13;5068253;28;20020;-67
2022/10/07 01:21:05;;;;;;;0.40;0.40;;;;;;;12.66;87.54;100708.13;5067027;28;20253;-67
2022/10/07 01:23:50;;;;;;;21.38;2.80;;;;;;;12.63;87.64;100683.00;5067073;28;20052;-67
2022/10/07 01:26:44;;;;;;;0.40;0.40;;;;;;;12.71;87.39;100693.31;5067299;28;20032;-66
2022/10/07 01:29:18;;;;;;;0.40;0.40;;;;;;;12.72;87.37;100692.41;5067570;28;20025;-67
2022/10/07 01:31:57;;;;;;;1.02;1.02;;;;;;;12.73;87.42;100694.16;5067256;28;20047;-68
2022/10/07 01:34:25;;;;;;;3.42;3.05;;;;;;;12.71;87.33;100690.69;5067267;28;20034;-67
2022/10/07 01:36:53;;;;;;;3.90;3.70;;;;;;;12.70;87.14;100683.78;5067194;28;20025;-68
2022/10/07 01:39:24;;;;;;;1.50;1.40;;;;;;;12.74;87.32;100698.47;5067364;28;20032;-67
2022/10/07 01:41:50;;;;;;;0.65;0.65;;;;;;;12.78;87.07;100687.13;5066736;28;20033;-68
2022/10/07 01:44:16;;;;;;;0.60;0.60;;;;;;;12.78;87.30;100687.13;5065909;28;20029;-67
2022/10/07 01:46:42;;;;;;;3.80;2.25;;;;;;;12.79;87.35;100682.78;5066547;28;20107;-66
2022/10/07 01:49:08;;;;;;;0.40;0.40;;;;;;;12.79;87.16;100654.13;5066690;28;20115;-69
2022/10/07 01:51:37;;;;;;;0.40;0.40;;;;;;;12.76;87.45;100668.91;5066656;28;20107;-67
2022/10/07 01:54:23;;;;;;;2.60;1.70;;;;;;;12.78;86.98;100658.47;5066455;28;20025;-66
2022/10/07 01:57:10;;;;;;;0.70;0.70;;;;;;;12.75;87.32;100662.00;5066050;28;20025;-66
2022/10/07 01:59:44;;;;;;;65.95;3.22;;;;;;;12.72;87.42;100650.75;5066349;28;20071;-67
2022/10/07 02:02:28;;;;;;;4.43;1.95;;;;;;;12.66;87.72;100650.81;5066446;28;20052;-67
2022/10/07 02:05:09;;;;;;;0.85;0.85;;;;;;;12.61;87.52;100643.94;5066697;28;20024;-66
2022/10/07 02:08:20;;;;;;;0.50;0.50;;;;;;;12.59;87.82;100643.09;5066794;28;20032;-67
2022/10/07 02:11:05;;;;;;;0.40;0.40;;;;;;;12.52;88.07;100646.66;5066606;28;20029;-67
2022/10/07 02:13:33;;;;;;;0.40;0.40;;;;;;;12.54;88.10;100647.50;5066155;28;20052;-67
2022/10/07 02:16:03;;;;;;;1.10;1.10;;;;;;;12.55;88.21;100633.59;5064508;28;20031;-68
2022/10/07 02:18:31;;;;;;;0.40;0.40;;;;;;;12.57;88.50;100618.81;5066435;28;20074;-67
2022/10/07 02:20:57;;;;;;;0.40;0.40;;;;;;;12.56;88.94;100619.69;5066217;28;20021;-66
2022/10/07 02:23:24;;;;;;;0.40;0.40;;;;;;;12.59;88.71;100618.78;5066055;28;20053;-66
2022/10/07 02:25:52;;;;;;;0.82;0.82;;;;;;;12.59;89.08;100619.66;5066117;28;20119;-66
2022/10/07 02:28:22;;;;;;;0.40;0.40;;;;;;;12.58;89.17;100612.72;5066053;28;20032;-66
2022/10/07 02:30:52;;;;;;;0.50;0.50;;;;;;;12.62;89.27;100614.41;5066093;28;20028;-67
2022/10/07 02:33:20;;;;;;;0.40;0.40;;;;;;;12.64;89.44;100612.66;5065594;28;20029;-67
2022/10/07 02:35:53;;;;;;;0.40;0.40;;;;;;;12.68;89.77;100600.44;5064550;28;20036;-67
2022/10/07 02:38:20;;;;;;;0.50;0.50;;;;;;;12.72;89.19;100612.53;5066144;28;20036;-67
2022/10/07 02:41:30;;;;;;;0.50;0.50;;;;;;;12.73;89.92;100606.44;5066167;28;20055;-67
2022/10/07 02:44:25;;;;;;;0.65;0.65;;;;;;;12.78;89.68;100606.38;5044806;28;20035;-68
2022/10/07 02:46:57;;;;;;;2.50;1.65;;;;;;;12.77;89.51;100592.50;5065940;28;20402;-67
2022/10/07 02:49:25;;;;;;;4.03;3.42;;;;;;;12.83;89.54;100593.28;5065609;28;20021;-67
2022/10/07 02:51:57;;;;;;;3.22;2.90;;;;;;;12.85;89.48;100602.81;5065780;28;20021;-67
2022/10/07 02:54:28;;;;;;;2.30;2.10;;;;;;;12.89;89.60;100595.81;5065772;28;20414;-67
2022/10/07 02:56:55;;;;;;;0.50;0.50;;;;;;;12.92;89.81;100587.94;5064994;28;20025;-67
2022/10/07 02:59:23;;;;;;;0.50;0.50;;;;;;;12.94;89.82;100582.72;5064378;28;20040;-66
2022/10/07 03:01:54;;;;;;;1.33;1.27;;;;;;;12.89;89.83;100583.63;5065613;28;20036;-66
2022/10/07 03:04:21;;;;;;;0.30;0.30;;;;;;;12.98;89.64;100573.94;5065633;28;20029;-66
2022/10/07 03:06:46;;;;;;;0.30;0.30;;;;;;;12.95;89.73;100579.22;5065674;28;20330;-66
2022/10/07 03:09:12;;;;;;;0.40;0.40;;;;;;;13.00;89.82;100585.22;5065571;28;20029;-67
2022/10/07 03:11:38;;;;;;;0.30;0.30;;;;;;;12.98;89.52;100567.00;5065186;28;20017;-66
2022/10/07 03:14:04;;;;;;;0.30;0.30;;;;;;;13.05;89.31;100577.31;5063642;28;20029;-67
2022/10/07 03:16:29;;;;;;;0.70;0.70;;;;;;;12.97;89.56;100567.03;5063911;28;20028;-67
2022/10/07 03:18:55;;;;;;;0.40;0.40;;;;;;;12.96;89.53;100566.16;5065278;28;20074;-67
2022/10/07 03:21:21;;;;;;;0.40;0.40;;;;;;;12.93;89.97;100576.63;5064978;28;20381;-68
2022/10/07 03:23:51;;;;;;;0.40;0.40;;;;;;;12.84;90.10;100572.41;5065140;28;20013;-67
2022/10/07 03:26:18;;;;;;;0.40;0.40;;;;;;;12.77;90.71;100550.81;5065195;28;20067;-68
2022/10/07 03:28:44;;;;;;;0.40;0.40;;;;;;;12.73;91.08;100556.09;5064876;28;20021;-68
2022/10/07 03:31:11;;;;;;;0.68;0.68;;;;;;;12.73;91.34;100559.53;5065144;28;20043;-68
2022/10/07 03:33:37;;;;;;;0.40;0.40;;;;;;;12.73;91.72;100554.34;5064904;28;20024;-67
2022/10/07 03:36:07;;;;;;;0.30;0.30;;;;;;;12.75;91.89;100559.50;5065324;28;20359;-67
2022/10/07 03:38:33;;;;;;;4.43;2.20;;;;;;;12.73;92.47;100554.34;5065150;28;20025;-68
2022/10/07 03:41:00;;;;;;;0.38;0.38;;;;;;;12.73;92.34;100543.06;5065154;28;20084;-67
2022/10/07 03:43:27;;;;;;;0.40;0.40;;;;;;;12.80;92.35;100542.09;5064778;28;20090;-69
2022/10/07 03:45:52;;;;;;;5.20;4.22;;;;;;;12.78;92.52;100523.00;5064992;28;20032;-67
2022/10/07 03:48:17;;;;;;;0.55;0.55;;;;;;;12.80;92.50;100531.66;5065125;28;20052;-67
2022/10/07 03:50:54;;;;;;;0.40;0.40;;;;;;;12.86;92.46;100541.97;5064856;28;20036;-66
2022/10/07 03:53:20;;;;;;;0.40;0.40;;;;;;;12.94;92.13;100528.00;5065094;28;20024;-67
2022/10/07 03:55:45;;;;;;;0.40;0.40;;;;;;;12.95;91.83;100524.50;5065141;28;20108;-67
2022/10/07 03:58:11;;;;;;;3.10;2.05;;;;;;;13.00;91.95;100531.31;5065603;28;20029;-67
2022/10/07 04:00:37;;;;;;;0.70;0.70;;;;;;;13.04;91.67;100537.34;5065226;28;20078;-66
2022/10/07 04:03:04;;;;;;;0.40;0.40;;;;;;;13.05;91.54;100531.25;5064795;28;20060;-68
2022/10/07 04:05:29;;;;;;;0.30;0.30;;;;;;;13.08;91.56;100531.19;5065018;28;20017;-67
2022/10/07 04:07:55;;;;;;;0.40;0.40;;;;;;;13.13;91.44;100523.34;5065129;28;20028;-67
2022/10/07 04:10:20;;;;;;;0.40;0.40;;;;;;;13.17;91.16;100532.81;5067353;28;20546;-67
2022/10/07 04:12:50;;;;;;;1.20;1.20;;;;;;;13.20;90.91;100521.44;5068480;28;20020;-67
2022/10/07 04:15:16;;;;;;;0.95;0.95;;;;;;;13.25;90.97;100515.28;5068700;28;20036;-68
2022/10/07 04:17:57;;;;;;;0.47;0.47;;;;;;;13.28;90.30;100514.34;5068311;28;20024;-68
2022/10/07 04:20:27;;;;;;;7.03;3.22;;;;;;;13.25;90.12;100504.84;5067439;28;20028;-68
2022/10/07 04:22:53;;;;;;;0.40;0.40;;;;;;;13.29;89.94;100500.44;5066867;28;20045;-67
2022/10/07 04:25:33;;;;;;;2.75;2.63;;;;;;;13.30;89.75;100476.09;5068427;28;20065;-67
2022/10/07 04:28:02;;;;;;;0.85;0.85;;;;;;;13.26;89.52;100490.94;5068224;28;20024;-65
2022/10/07 04:30:33;;;;;;;0.75;0.75;;;;;;;13.25;89.55;100485.75;5068398;28;20064;-67
2022/10/07 04:33:00;;;;;;;30.50;2.42;;;;;;;13.27;89.42;100487.41;5068297;28;20056;-68
2022/10/07 04:35:25;;;;;;;0.40;0.40;;;;;;;13.22;89.56;100472.75;5068452;28;20453;-66
2022/10/07 04:37:52;;;;;;;0.50;0.50;;;;;;;13.25;89.80;100484.00;5068177;28;20461;-65
2022/10/07 04:40:18;;;;;;;2.47;1.95;;;;;;;13.28;89.50;100475.25;5068339;28;20051;-65
2022/10/07 04:45:28;;;;;;;0.60;0.60;;;;;;;13.29;89.97;100476.13;5068409;28;20055;-67
2022/10/07 04:47:53;;;;;;;0.32;0.32;;;;;;;13.31;89.98;100469.09;5069722;28;20029;-68
2022/10/07 04:50:19;;;;;;;0.40;0.40;;;;;;;13.32;89.71;100469.09;5068101;28;20031;-66
2022/10/07 04:52:45;;;;;;;0.85;0.85;;;;;;;13.33;89.66;100454.31;5067986;28;20021;-68
2022/10/07 04:55:13;;;;;;;0.32;0.32;;;;;;;13.32;89.88;100466.47;5067991;28;20025;-67
2022/10/07 04:57:39;;;;;;;0.40;0.40;;;;;;;13.35;89.88;100465.56;5067745;28;20029;-69
2022/10/07 05:00:06;;;;;;;0.30;0.30;;;;;;;13.39;89.70;100459.41;5068127;28;20544;-66
2022/10/07 05:02:32;;;;;;;0.40;0.40;;;;;;;13.41;89.57;100456.75;5065948;28;20100;-70
2022/10/07 05:04:58;;;;;;;0.40;0.40;;;;;;;13.42;89.38;100454.13;5068447;28;20047;-67
2022/10/07 05:07:24;;;;;;;0.40;0.40;;;;;;;13.39;89.42;100444.63;5067848;28;20025;-70
2022/10/07 05:09:50;;;;;;;0.40;0.40;;;;;;;13.31;89.59;100445.66;5068006;28;20086;-69
2022/10/07 05:12:16;;;;;;;0.47;0.47;;;;;;;13.37;89.95;100467.25;5067522;28;20033;-71
2022/10/07 05:14:42;;;;;;;0.40;0.40;;;;;;;13.33;89.99;100434.31;5067761;28;20122;-72
2022/10/07 05:17:07;;;;;;;0.40;0.40;;;;;;;13.33;90.06;100460.38;5067765;28;20142;-69
2022/10/07 05:19:34;;;;;;;1.00;1.00;;;;;;;13.36;90.32;100442.06;5067672;28;20039;-69
2022/10/07 05:21:59;;;;;;;0.93;0.93;;;;;;;13.32;90.53;100423.91;5067480;28;20052;-68
2022/10/07 05:24:24;;;;;;;0.50;0.50;;;;;;;13.34;90.08;100441.25;5067741;28;20426;-69
2022/10/07 05:26:49;;;;;;;0.40;0.40;;;;;;;13.36;90.54;100441.22;5066221;28;20058;-68
2022/10/07 05:29:15;;;;;;;0.40;0.40;;;;;;;13.38;90.56;100432.50;5066460;28;20116;-69
2022/10/07 05:31:40;;;;;;;0.40;0.40;;;;;;;13.39;90.26;100442.03;5067922;28;20021;-69
2022/10/07 05:34:06;;;;;;;0.40;0.40;;;;;;;13.44;90.16;100441.06;5068216;28;20017;-68
2022/10/07 05:36:33;;;;;;;0.40;0.40;;;;;;;13.44;90.54;100436.72;5067767;28;20047;-68
2022/10/07 05:38:58;;;;;;;0.40;0.40;;;;;;;13.43;90.40;100429.78;5068347;28;20029;-68
2022/10/07 05:41:26;;;;;;;0.40;0.40;;;;;;;13.49;89.92;100424.44;5069693;28;20514;-68
2022/10/07 05:43:52;;;;;;;0.40;0.40;;;;;;;13.52;89.99;100431.38;5070497;28;20180;-68
2022/10/07 05:46:22;;;;;;;0.40;0.40;;;;;;;13.52;89.99;100423.53;5076527;28;20028;-69
2022/10/07 05:48:50;;;;;;;0.30;0.30;;;;;;;13.58;89.89;100430.38;5071513;28;20048;-68
2022/10/07 05:51:17;;;;;;;1.00;1.00;;;;;;;13.56;89.78;100434.78;5066433;28;20107;-67
2022/10/07 05:53:45;;;;;;;0.38;0.38;;;;;;;13.51;89.69;100421.84;5066161;28;20040;-68
2022/10/07 05:56:14;;;;;;;0.35;0.35;;;;;;;13.55;89.86;100433.91;5065601;28;20025;-68
2022/10/07 05:58:40;;;;;;;0.40;0.40;;;;;;;13.57;89.89;100426.06;5065739;28;20036;-68
2022/10/07 06:01:07;;;;;;;1.73;1.63;;;;;;;13.54;89.99;100439.16;5065015;28;20092;-68
2022/10/07 06:03:33;;;;;;;0.38;0.38;;;;;;;13.59;89.73;100440.81;5066183;28;20031;-69
2022/10/07 06:05:59;;;;;;;0.40;0.40;;;;;;;13.55;89.83;100430.44;5066040;28;20545;-68
2022/10/07 06:08:25;;;;;;;0.40;0.40;;;;;;;13.55;89.84;100441.72;5065855;28;20020;-68
2022/10/07 06:13:35;;;;;;;3.33;2.53;;;;;;;13.59;89.81;100432.09;5065533;28;20023;-69
2022/10/07 06:16:02;;;;;;;0.30;0.30;;;;;;;13.61;89.97;100435.56;5064573;28;20033;-68
2022/10/07 06:18:28;;;;;;;0.40;0.40;;;;;;;13.60;89.63;100439.03;5065766;28;20055;-68
2022/10/07 06:20:58;;;;;;;0.40;0.40;;;;;;;13.61;90.06;100431.16;5065921;28;20021;-68
2022/10/07 06:23:24;;;;;;;0.43;0.43;;;;;;;13.59;89.89;100437.31;5063949;28;20101;-69
2022/10/07 06:26:04;;;;;;;0.30;0.30;;;;;;;13.63;89.67;100424.19;5065607;28;20083;-68
2022/10/07 06:28:35;;;;;;;0.40;0.40;;;;;;;13.69;89.54;100433.63;5065282;28;20040;-69
2022/10/07 06:31:10;;;;;;;0.40;0.40;;;;;;;13.71;89.49;100444.03;5064661;28;20049;-70
2022/10/07 06:33:35;;;;;;;29.60;6.32;;;;;;;13.69;89.29;100432.78;5063822;28;20032;-69
2022/10/07 06:36:02;;;;;;;0.40;0.40;;;;;;;13.72;89.07;100424.88;5065435;28;20107;-69
2022/10/07 06:38:28;;;;;;;0.30;0.30;;;;;;;13.76;89.08;100434.34;5066193;28;20060;-68
2022/10/07 06:41:00;;;;;;;0.40;0.40;;;;;;;13.80;88.48;100428.16;5064611;28;20075;-69
2022/10/07 06:43:26;;;;;;;;;;;;;;;13.87;87.96;100432.38;5065386;28;20033;-70
2022/10/07 06:45:51;;;;;;;0.38;0.38;;;;;;;13.86;87.75;100435.88;5065332;28;20050;-66
2022/10/07 06:48:17;;;;;;;0.40;0.40;;;;;;;13.86;88.09;100421.97;5064886;28;20037;-66
2022/10/07 06:50:50;;;;;;;0.40;0.40;;;;;;;13.86;87.85;100421.97;5065066;28;20024;-68
2022/10/07 06:53:15;;;;;;;0.30;0.30;;;;;;;13.92;87.84;100431.41;5064640;28;20025;-66
2022/10/07 06:55:41;;;;;;;5.18;2.58;;;;;;;13.97;87.66;100429.56;5064829;28;20017;-70
2022/10/07 06:58:06;;;;;;;0.60;0.60;;;;;;;13.96;87.34;100422.63;5065002;28;20512;-67
2022/10/07 07:00:31;;;;;;;11.18;3.60;;;;;;;13.91;87.46;100430.56;5064947;28;20047;-69
2022/10/07 07:03:00;;;;;;;0.40;0.40;;;;;;;13.90;87.18;100413.16;5063228;28;20485;-67
2022/10/07 07:05:30;;;;;;;0.80;0.80;;;;;;;13.83;87.48;100422.91;5064615;28;20028;-67
2022/10/07 07:07:56;;;;;;;0.38;0.38;;;;;;;13.80;87.97;100428.16;5064687;28;20051;-67
2022/10/07 07:10:21;;;;;;;0.50;0.50;;;;;;;13.81;87.92;100422.06;5064818;28;20029;-66
2022/10/07 07:12:46;;;;;;;0.30;0.30;;;;;;;13.75;87.87;100428.25;5064353;28;20035;-67
2022/10/07 07:15:12;;;;;;;0.40;0.40;;;;;;;13.74;88.00;100412.66;5064808;28;20031;-67
2022/10/07 07:17:37;;;;;;;0.40;0.40;;;;;;;13.81;87.75;100421.22;5064516;28;20111;-68
2022/10/07 07:20:03;;;;;;;0.30;0.30;;;;;;;13.76;88.02;100421.31;5064647;28;20025;-67
2022/10/07 07:22:29;;;;;;;0.55;0.55;;;;;;;13.75;88.06;100424.81;5064241;28;20048;-67
2022/10/07 07:24:54;;;;;;;0.40;0.40;;;;;;;13.77;87.91;100437.84;5064496;28;20092;-67
2022/10/07 07:27:20;;;;;;;0.40;0.40;;;;;;;13.78;87.81;100424.75;5064442;28;20094;-67
2022/10/07 07:29:45;;;;;;;0.55;0.55;;;;;;;13.71;87.75;100428.38;5064699;28;20025;-68
2022/10/07 07:32:11;;;;;;;0.40;0.40;;;;;;;13.75;87.94;100433.47;5064599;28;20029;-67
2022/10/07 07:34:37;;;;;;;0.40;0.40;;;;;;;13.79;87.71;100410.81;5064464;28;20321;-68
2022/10/07 07:37:02;;;;;;;0.40;0.40;;;;;;;13.75;87.38;100417.00;5064355;28;20044;-68
2022/10/07 07:39:28;;;;;;;0.40;0.40;;;;;;;13.76;87.58;100418.69;5064324;28;20029;-69
2022/10/07 07:41:53;;;;;;;0.30;0.30;;;;;;;13.71;87.47;100413.59;5064398;28;20120;-67
2022/10/07 07:44:19;;;;;;;0.32;0.32;;;;;;;13.73;87.47;100427.47;5068529;28;20028;-68
2022/10/07 07:46:48;;;;;;;0.30;0.30;;;;;;;13.77;87.31;100430.00;5068467;28;20028;-67
2022/10/07 07:49:16;;;;;;;0.40;0.40;;;;;;;13.76;87.35;100421.31;5068495;28;20038;-69
2022/10/07 07:51:42;;;;;;;1.48;1.05;;;;;;;13.79;87.16;100425.59;5068447;28;20358;-68
2022/10/07 07:54:08;;;;;;;0.38;0.38;;;;;;;13.81;86.73;100419.47;5068289;28;20051;-68
2022/10/07 07:56:33;;;;;;;0.30;0.30;;;;;;;13.87;86.74;100398.44;5068214;28;20029;-67
2022/10/07 07:59:00;;;;;;;0.40;0.40;;;;;;;13.84;86.34;100402.88;5067944;28;20079;-69
2022/10/07 08:01:30;;;;;;;0.40;0.40;;;;;;;13.84;86.48;100415.91;5066740;28;20025;-67
2022/10/07 08:03:56;;;;;;;0.50;0.50;;;;;;;13.88;86.60;100394.09;5066702;28;20020;-67
2022/10/07 08:06:22;;;;;;;0.40;0.40;;;;;;;13.90;86.58;100394.91;5068224;28;20123;-67
2022/10/07 08:08:48;;;;;;;1.38;1.38;;;;;;;13.85;86.56;100412.44;5067886;28;20124;-68
2022/10/07 08:11:18;;;;;;;0.40;0.40;;;;;;;13.85;86.67;100418.50;5068280;28;20036;-68
2022/10/07 08:13:45;;;;;;;0.32;0.32;;;;;;;13.85;86.00;100402.00;5067865;28;20021;-68
2022/10/07 08:16:22;;;;;;;0.40;0.40;;;;;;;13.81;86.14;100395.13;5068154;28;20028;-68
2022/10/07 08:18:49;;;;;;;0.40;0.40;;;;;;;13.85;86.11;100410.66;5067986;28;20025;-68
2022/10/07 08:21:17;;;;;;;0.40;0.40;;;;;;;13.87;85.88;100398.44;5067764;28;20025;-68
2022/10/07 08:23:42;;;;;;;0.40;0.40;;;;;;;13.83;85.98;100406.38;5067954;28;20027;-67
2022/10/07 08:26:08;;;;;;;0.40;0.40;;;;;;;13.79;86.00;100400.38;5067965;28;20457;-67
2022/10/07 08:28:35;;;;;;;8.35;2.00;;;;;;;13.80;85.64;100385.59;5067626;28;20064;-66
2022/10/07 08:31:10;;;;;;;2.35;2.25;;;;;;;13.78;85.62;100395.19;5067543;28;20043;-68
2022/10/07 08:33:43;;;;;;;0.57;0.57;;;;;;;13.77;85.70;100389.09;5067473;28;20029;-70
2022/10/07 08:36:12;;;;;;;0.45;0.45;;;;;;;13.77;85.92;100389.09;5066193;28;20104;-67
2022/10/07 08:38:39;;;;;;;0.40;0.40;;;;;;;13.74;85.62;100383.94;5067528;28;20075;-67
2022/10/07 08:41:07;;;;;;;0.63;0.63;;;;;;;13.68;85.79;100382.34;5066198;28;20084;-69
2022/10/07 08:43:35;;;;;;;0.65;0.65;;;;;;;13.69;86.04;100380.59;5067340;28;20021;-68
2022/10/07 08:46:03;;;;;;;0.85;0.85;;;;;;;13.71;85.84;100376.19;5067456;28;20035;-68
2022/10/07 08:48:33;;;;;;;0.82;0.82;;;;;;;13.71;85.44;100377.06;5067643;28;20031;-68
2022/10/07 08:51:05;;;;;;;0.40;0.40;;;;;;;13.68;85.78;100374.53;5067358;28;20491;-68
2022/10/07 08:53:35;;;;;;;8.63;2.65;;;;;;;13.65;85.66;100369.38;5066401;28;20033;-68
2022/10/07 08:56:10;;;;;;;0.40;0.40;;;;;;;13.64;85.50;100370.28;5067321;28;20029;-68
2022/10/07 08:58:42;;;;;;;0.40;0.40;;;;;;;13.64;85.75;100375.50;5067001;28;20025;-68
2022/10/07 09:01:41;;;;;;;4.28;2.92;;;;;;;13.59;85.79;100362.56;5067131;28;20032;-67
2022/10/07 09:04:22;;;;;;;0.40;0.40;;;;;;;13.62;85.56;100352.03;5067110;28;20021;-69
2022/10/07 09:06:54;;;;;;;0.40;0.40;;;;;;;13.65;85.71;100360.69;5067147;28;20059;-70
2022/10/07 09:09:26;;;;;;;1.55;1.55;;;;;;;13.58;85.65;100357.34;5066829;28;20029;-70
2022/10/07 09:11:55;;;;;;;0.30;0.30;;;;;;;13.60;85.64;100373.81;5066992;28;20021;-68
2022/10/07 09:14:32;;;;;;;0.50;0.50;;;;;;;13.60;85.83;100350.34;5066804;28;20025;-68
2022/10/07 09:17:07;;;;;;;0.55;0.55;;;;;;;13.59;85.89;100346.91;5066909;28;20027;-67
2022/10/07 09:19:38;;;;;;;0.40;0.40;;;;;;;13.53;86.17;100349.63;5066723;28;20049;-67
2022/10/07 09:22:31;;;;;;;1.58;1.48;;;;;;;13.58;86.40;100359.94;5066590;28;20059;-69
2022/10/07 09:25:12;;;;;;;0.40;0.40;;;;;;;13.63;85.75;100358.97;5063984;28;20059;-67
2022/10/07 09:27:38;;;;;;;8.23;2.85;;;;;;;13.60;85.77;100359.03;5066518;28;20043;-66
2022/10/07 09:30:05;;;;;;;0.47;0.47;;;;;;;13.55;86.11;100360.88;5066561;28;20108;-67
2022/10/07 09:32:31;;;;;;;1.50;1.50;;;;;;;13.60;86.02;100332.94;5066408;28;20036;-68
2022/10/07 09:34:57;;;;;;;1.25;1.25;;;;;;;13.58;85.50;100326.91;5066464;28;20031;-68
2022/10/07 09:37:28;;;;;;;0.40;0.40;;;;;;;13.59;85.76;100335.59;5066332;28;20048;-68
2022/10/07 09:40:15;;;;;;;1.80;1.67;;;;;;;13.60;85.90;100335.56;5066363;28;20086;-67
2022/10/07 09:42:44;;;;;;;0.40;0.40;;;;;;;13.55;86.10;100333.94;5065674;28;20076;-67
2022/10/07 09:45:31;;;;;;;0.75;0.73;;;;;;;13.56;86.23;100326.06;5066439;28;20114;-68
2022/10/07 09:48:21;;;;;;;0.85;0.85;;;;;;;13.60;86.20;100339.91;5066590;28;20021;-68
2022/10/07 09:50:47;;;;;;;0.80;0.80;;;;;;;13.62;85.82;100325.97;5054940;28;20052;-69
2022/10/07 09:53:24;;;;;;;0.70;0.70;;;;;;;13.62;85.58;100325.09;5066237;28;20017;-68
2022/10/07 09:55:52;;;;;;;0.40;0.40;;;;;;;13.63;85.75;100311.16;5066270;28;20407;-67
2022/10/07 09:58:24;;;;;;;4.90;3.05;;;;;;;13.60;85.97;100327.75;5065955;28;20087;-68
2022/10/07 10:00:52;;;;;;;0.60;0.60;;;;;;;13.59;85.64;100322.56;5066284;28;20025;-67
2022/10/07 10:03:18;;;;;;;3.30;3.05;;;;;;;13.57;85.88;100314.75;5065853;28;20591;-68
2022/10/07 10:05:57;;;;;;;0.38;0.38;;;;;;;13.55;85.74;100308.72;5064835;28;20025;-68
2022/10/07 10:08:29;;;;;;;0.38;0.38;;;;;;;13.59;85.99;100299.06;5065850;28;20126;-68
2022/10/07 10:10:57;;;;;;;0.80;0.80;;;;;;;13.62;85.81;100305.09;5065918;28;20176;-72
2022/10/07 10:13:35;;;;;;;0.55;0.55;;;;;;;13.62;86.02;100322.50;5065415;28;20029;-69
2022/10/07 10:16:02;;;;;;;0.30;0.30;;;;;;;13.67;85.67;100296.28;5065586;28;20029;-67
2022/10/07 10:18:39;;;;;;;0.40;0.40;;;;;;;13.72;85.46;100299.66;5065479;28;20033;-68
2022/10/07 10:21:18;;;;;;;0.40;0.40;;;;;;;13.75;84.90;100296.97;5065478;28;20158;-68
2022/10/07 10:23:49;;;;;;;0.40;0.40;;;;;;;13.87;84.50;100294.06;5064056;28;20555;-68
2022/10/07 10:26:36;;;;;;;0.40;0.40;;;;;;;13.85;84.39;100306.28;5065664;28;20059;-68
2022/10/07 10:29:09;;;;;;;0.40;0.40;;;;;;;13.82;84.15;100287.22;5065490;28;20051;-67
2022/10/07 10:31:56;;;;;;;0.40;0.40;;;;;;;13.83;84.48;100278.53;5065386;28;20032;-70
2022/10/07 10:35:11;;;;;;;1.10;1.10;;;;;;;13.77;84.45;100294.34;5065291;28;20159;-68
2022/10/07 10:37:39;;;;;;;0.30;0.30;;;;;;;13.77;84.71;100297.78;5003282;28;20030;-69
2022/10/07 10:40:27;;;;;;;0.40;0.40;;;;;;;13.75;84.57;100283.94;5003430;28;20030;-69
2022/10/07 10:43:15;;;;;;;0.40;0.40;;;;;;;13.65;84.68;100280.69;4995936;28;20030;-69
2022/10/07 10:45:59;;;;;;;7.07;1.70;;;;;;;13.58;85.07;100286.91;5003368;28;20041;-68
2022/10/07 10:48:36;;;;;;;1.38;1.38;;;;;;;13.58;85.11;100271.25;5003103;28;20053;-69
2022/10/07 10:51:24;;;;;;;0.50;0.50;;;;;;;13.56;85.43;100281.72;5003319;28;20138;-69
2022/10/07 10:54:10;;;;;;;0.40;0.40;;;;;;;13.48;85.86;100265.38;5003091;28;20273;-69
2022/10/07 10:57:21;;;;;;;0.40;0.40;;;;;;;13.49;86.08;100259.28;5003471;28;20041;-69
2022/10/07 11:00:13;;;;;;;0.40;0.40;;;;;;;13.48;86.14;100260.19;5003601;28;20122;-68
2022/10/07 11:02:39;;;;;;;0.60;0.60;;;;;;;13.49;86.51;100267.97;5003341;28;20034;-69
2022/10/07 11:05:10;;;;;;;1.48;1.40;;;;;;;13.54;86.24;100262.69;5003143;28;20037;-68
2022/10/07 11:07:42;;;;;;;0.50;0.50;;;;;;;13.50;86.28;100250.53;5014802;28;20239;-66
2022/10/07 11:10:21;;;;;;;0.55;0.55;;;;;;;13.51;86.38;100257.53;5065101;28;20025;-68
2022/10/07 11:13:05;;;;;;;0.40;0.40;;;;;;;13.51;86.93;100249.72;5065065;28;20079;-68
2022/10/07 11:15:40;;;;;;;1.40;1.38;;;;;;;13.47;86.74;100258.44;5064739;28;20052;-68
2022/10/07 11:18:16;;;;;;;0.68;0.68;;;;;;;13.40;87.21;100247.31;5064499;28;20391;-70
2022/10/07 11:20:46;;;;;;;1.02;1.02;;;;;;;13.36;87.44;100237.84;5064959;28;20090;-67
2022/10/07 11:23:18;;;;;;;0.52;0.52;;;;;;;13.24;87.45;100218.97;5064528;28;20203;-67
2022/10/07 11:25:51;;;;;;;0.40;0.40;;;;;;;13.26;87.42;100232.81;5064671;28;20060;-68
2022/10/07 11:28:24;;;;;;;24.65;1.75;;;;;;;13.23;88.45;100224.22;5064417;28;20021;-67
2022/10/07 11:31:12;;;;;;;1.90;1.83;;;;;;;13.31;88.59;100221.44;5064582;28;20040;-68
2022/10/07 11:33:53;;;;;;;0.30;0.30;;;;;;;13.37;88.39;100218.72;5064400;28;20029;-70
2022/10/07 11:36:42;;;;;;;0.40;0.40;;;;;;;13.39;88.63;100209.06;5064467;28;20036;-66
2022/10/07 11:39:08;;;;;;;0.75;0.75;;;;;;;13.39;88.38;100204.72;5064290;28;20052;-67
2022/10/07 11:41:44;;;;;;;0.40;0.40;;;;;;;13.39;87.69;100214.28;5064435;28;20032;-67
2022/10/07 11:44:21;;;;;;;0.40;0.40;;;;;;;13.37;88.11;100216.09;5063994;28;20021;-68
2022/10/07 11:46:47;;;;;;;0.40;0.40;;;;;;;13.33;88.16;100204.88;5064400;28;20071;-66